^^
Station Historical Data
 
Daily Summary for November 17, 2018 Units:  Both    English   Metric
« Previous Day
Next Day »
Daily Weekly Monthly Yearly Custom
  Current: High: Low: Average:
Temperature: 84.7 °F /  29.3 °C TemperatureF °F /  -17.8 °C 66.6 °F /  19.2 °C 70.1 °F /  21.2 °C
Dew Point: 36.5 °F /  2.5 °C DewpointF °F /  -17.8 °C 35.1 °F /  1.7 °C 36.7 °F /  2.6 °C
Humidity: 18% Humidity% 18% 29%
Wind Speed: 2.0mph /  3.2km/h WindSpeedMPHmph /  0km/h - 0.7mph /  1.1km/h
Wind Gust: 7.0mph /  11.3km/h WindSpeedGustMPHmph /  0km/h - -
WindENE - - ESE
Pressure: 29.80 in /  1009 hPa PressureIn in /  0 hPa 29.76 in /  1007.7 hPa -
Precipitation: 0.00 in /  0 mm      
Historical Graphs
 
 
Tabular Data for November 17, 2018
Time Temperature Dew Point Pressure Wind Wind Speed Wind Gust Humidity Rainfall Rate (Hourly) solar Conditions
TemperatureF °F /  -17.8 °C DewpointF °F /  -17.8 °C PressureInin /  0hPa Calm     Humidity% HourlyPrecipInin /  0mm SolarRadiationWatts/m^2 W/m2 Conditions
00:04 71.1 °F /  21.7 °C 37.2 °F /  2.9 °C 29.81in /  1009.4hPa Calm     29% 0.00in /  0mm 0.00 W/m2
00:09 70.9 °F /  21.6 °C 37.0 °F /  2.8 °C 29.80in /  1009hPa Calm     29% 0.00in /  0mm 0.00 W/m2
00:14 70.5 °F /  21.4 °C 36.7 °F /  2.6 °C 29.80in /  1009hPa Calm   2.0mph /  3.2km/h 29% 0.00in /  0mm 0.00 W/m2
00:19 70.3 °F /  21.3 °C 37.4 °F /  3 °C 29.80in /  1009hPa Calm   2.0mph /  3.2km/h 30% 0.00in /  0mm 0.00 W/m2
00:23 70.2 °F /  21.2 °C 38.1 °F /  3.4 °C 29.80in /  1009hPa Calm   3.0mph /  4.8km/h 31% 0.00in /  0mm 0.00 W/m2
00:29 70.0 °F /  21.1 °C 37.9 °F /  3.3 °C 29.80in /  1009hPa Calm   1.0mph /  1.6km/h 31% 0.00in /  0mm 0.00 W/m2
00:34 69.6 °F /  20.9 °C 37.6 °F /  3.1 °C 29.79in /  1008.7hPa Calm   1.0mph /  1.6km/h 31% 0.00in /  0mm 0.00 W/m2
00:38 69.6 °F /  20.9 °C 37.6 °F /  3.1 °C 29.80in /  1009hPa Calm   1.0mph /  1.6km/h 31% 0.00in /  0mm 0.00 W/m2
00:42 69.4 °F /  20.8 °C 37.4 °F /  3 °C 29.79in /  1008.7hPa Calm   2.0mph /  3.2km/h 31% 0.00in /  0mm 0.00 W/m2
00:48 69.4 °F /  20.8 °C 37.4 °F /  3 °C 29.80in /  1009hPa Calm   1.0mph /  1.6km/h 31% 0.00in /  0mm 0.00 W/m2
00:53 69.3 °F /  20.7 °C 37.4 °F /  3 °C 29.79in /  1008.7hPa Calm     31% 0.00in /  0mm 0.00 W/m2
00:59 69.3 °F /  20.7 °C 37.4 °F /  3 °C 29.79in /  1008.7hPa Calm   1.0mph /  1.6km/h 31% 0.00in /  0mm 0.00 W/m2
01:04 69.3 °F /  20.7 °C 37.4 °F /  3 °C 29.79in /  1008.7hPa Calm   1.0mph /  1.6km/h 31% 0.00in /  0mm 0.00 W/m2
01:09 69.3 °F /  20.7 °C 38.1 °F /  3.4 °C 29.79in /  1008.7hPa East 0.9mph /  1.4km/h 1.0mph /  1.6km/h 32% 0.00in /  0mm 0.00 W/m2
01:14 69.3 °F /  20.7 °C 38.1 °F /  3.4 °C 29.79in /  1008.7hPa Calm     32% 0.00in /  0mm 0.00 W/m2
01:19 69.4 °F /  20.8 °C 37.4 °F /  3 °C 29.79in /  1008.7hPa Calm   1.0mph /  1.6km/h 31% 0.00in /  0mm 0.00 W/m2
01:24 69.4 °F /  20.8 °C 38.3 °F /  3.5 °C 29.79in /  1008.7hPa Calm   1.0mph /  1.6km/h 32% 0.00in /  0mm 0.00 W/m2
01:29 69.4 °F /  20.8 °C 38.3 °F /  3.5 °C 29.78in /  1008.4hPa East 0.9mph /  1.4km/h 3.0mph /  4.8km/h 32% 0.00in /  0mm 0.00 W/m2
01:34 69.6 °F /  20.9 °C 38.5 °F /  3.6 °C 29.79in /  1008.7hPa Calm   3.0mph /  4.8km/h 32% 0.00in /  0mm 0.00 W/m2
01:39 69.6 °F /  20.9 °C 36.9 °F /  2.7 °C 29.78in /  1008.4hPa Calm   2.0mph /  3.2km/h 30% 0.00in /  0mm 0.00 W/m2
01:44 69.8 °F /  21 °C 37.8 °F /  3.2 °C 29.79in /  1008.7hPa Calm   1.0mph /  1.6km/h 31% 0.00in /  0mm 0.00 W/m2
01:49 70.0 °F /  21.1 °C 37.9 °F /  3.3 °C 29.78in /  1008.4hPa East 0.9mph /  1.4km/h 4.0mph /  6.4km/h 31% 0.00in /  0mm 0.00 W/m2
01:54 70.0 °F /  21.1 °C 37.0 °F /  2.8 °C 29.78in /  1008.4hPa Calm   2.0mph /  3.2km/h 30% 0.00in /  0mm 0.00 W/m2
01:59 70.0 °F /  21.1 °C 37.9 °F /  3.3 °C 29.78in /  1008.4hPa East 2.0mph /  3.2km/h 2.0mph /  3.2km/h 31% 0.00in /  0mm 0.00 W/m2
02:04 70.0 °F /  21.1 °C 37.9 °F /  3.3 °C 29.77in /  1008hPa East 0.9mph /  1.4km/h 3.0mph /  4.8km/h 31% 0.00in /  0mm 0.00 W/m2
02:09 70.2 °F /  21.2 °C 38.1 °F /  3.4 °C 29.77in /  1008hPa Calm   2.0mph /  3.2km/h 31% 0.00in /  0mm 0.00 W/m2
02:13 70.0 °F /  21.1 °C 37.0 °F /  2.8 °C 29.78in /  1008.4hPa Calm   3.0mph /  4.8km/h 30% 0.00in /  0mm 0.00 W/m2
02:19 70.0 °F /  21.1 °C 37.0 °F /  2.8 °C 29.78in /  1008.4hPa Calm   3.0mph /  4.8km/h 30% 0.00in /  0mm 0.00 W/m2
02:23 70.0 °F /  21.1 °C 37.0 °F /  2.8 °C 29.77in /  1008hPa Calm   2.0mph /  3.2km/h 30% 0.00in /  0mm 0.00 W/m2
02:28 70.0 °F /  21.1 °C 37.0 °F /  2.8 °C 29.77in /  1008hPa Calm   2.0mph /  3.2km/h 30% 0.00in /  0mm 0.00 W/m2
02:34 70.0 °F /  21.1 °C 37.0 °F /  2.8 °C 29.77in /  1008hPa Calm     30% 0.00in /  0mm 0.00 W/m2
02:39 70.0 °F /  21.1 °C 37.0 °F /  2.8 °C 29.77in /  1008hPa Calm     30% 0.00in /  0mm 0.00 W/m2
02:44 69.8 °F /  21 °C 37.0 °F /  2.8 °C 29.76in /  1007.7hPa Calm     30% 0.00in /  0mm 0.00 W/m2
02:49 69.8 °F /  21 °C 37.8 °F /  3.2 °C 29.76in /  1007.7hPa Calm     31% 0.00in /  0mm 0.00 W/m2
02:54 69.6 °F /  20.9 °C 37.6 °F /  3.1 °C 29.76in /  1007.7hPa Calm     31% 0.00in /  0mm 0.00 W/m2
02:59 69.6 °F /  20.9 °C 37.6 °F /  3.1 °C 29.76in /  1007.7hPa Calm     31% 0.00in /  0mm 0.00 W/m2
03:04 69.6 °F /  20.9 °C 37.6 °F /  3.1 °C 29.76in /  1007.7hPa Calm     31% 0.00in /  0mm 0.00 W/m2
03:09 69.6 °F /  20.9 °C 37.6 °F /  3.1 °C 29.76in /  1007.7hPa Calm     31% 0.00in /  0mm 0.00 W/m2
03:14 69.4 °F /  20.8 °C 37.4 °F /  3 °C 29.76in /  1007.7hPa Calm     31% 0.00in /  0mm 0.00 W/m2
03:18 69.4 °F /  20.8 °C 38.3 °F /  3.5 °C 29.76in /  1007.7hPa Calm   2.0mph /  3.2km/h 32% 0.00in /  0mm 0.00 W/m2
03:23 69.4 °F /  20.8 °C 38.3 °F /  3.5 °C 29.76in /  1007.7hPa Calm   3.0mph /  4.8km/h 32% 0.00in /  0mm 0.00 W/m2
03:29 69.3 °F /  20.7 °C 38.1 °F /  3.4 °C 29.76in /  1007.7hPa Calm   2.0mph /  3.2km/h 32% 0.00in /  0mm 0.00 W/m2
03:34 69.3 °F /  20.7 °C 38.1 °F /  3.4 °C 29.76in /  1007.7hPa Calm   2.0mph /  3.2km/h 32% 0.00in /  0mm 0.00 W/m2
03:39 69.3 °F /  20.7 °C 38.1 °F /  3.4 °C 29.76in /  1007.7hPa Calm   2.0mph /  3.2km/h 32% 0.00in /  0mm 0.00 W/m2
03:43 69.3 °F /  20.7 °C 38.1 °F /  3.4 °C 29.76in /  1007.7hPa Calm     32% 0.00in /  0mm 0.00 W/m2
03:49 69.1 °F /  20.6 °C 37.9 °F /  3.3 °C 29.76in /  1007.7hPa East 0.9mph /  1.4km/h 4.0mph /  6.4km/h 32% 0.00in /  0mm 0.00 W/m2
03:54 69.1 °F /  20.6 °C 37.9 °F /  3.3 °C 29.76in /  1007.7hPa East 2.0mph /  3.2km/h 3.0mph /  4.8km/h 32% 0.00in /  0mm 0.00 W/m2
03:59 69.1 °F /  20.6 °C 37.2 °F /  2.9 °C 29.76in /  1007.7hPa Calm   3.0mph /  4.8km/h 31% 0.00in /  0mm 0.00 W/m2
04:04 68.9 °F /  20.5 °C 37.0 °F /  2.8 °C 29.76in /  1007.7hPa East 0.9mph /  1.4km/h 2.0mph /  3.2km/h 31% 0.00in /  0mm 0.00 W/m2
04:09 68.7 °F /  20.4 °C 36.9 °F /  2.7 °C 29.76in /  1007.7hPa Calm   4.0mph /  6.4km/h 31% 0.00in /  0mm 0.00 W/m2
04:13 68.7 °F /  20.4 °C 36.9 °F /  2.7 °C 29.76in /  1007.7hPa Calm   1.0mph /  1.6km/h 31% 0.00in /  0mm 0.00 W/m2
04:19 68.7 °F /  20.4 °C 36.9 °F /  2.7 °C 29.76in /  1007.7hPa Calm     31% 0.00in /  0mm 0.00 W/m2
04:24 68.5 °F /  20.3 °C 37.6 °F /  3.1 °C 29.76in /  1007.7hPa Calm   1.0mph /  1.6km/h 32% 0.00in /  0mm 0.00 W/m2
04:29 68.4 °F /  20.2 °C 37.4 °F /  3 °C 29.76in /  1007.7hPa Calm     32% 0.00in /  0mm 0.00 W/m2
04:34 68.2 °F /  20.1 °C 37.2 °F /  2.9 °C 29.76in /  1007.7hPa Calm     32% 0.00in /  0mm 0.00 W/m2
04:39 67.8 °F /  19.9 °C 37.6 °F /  3.1 °C 29.76in /  1007.7hPa Calm     33% 0.00in /  0mm 0.00 W/m2
04:44 67.6 °F /  19.8 °C 37.6 °F /  3.1 °C 29.76in /  1007.7hPa Calm     33% 0.00in /  0mm 0.00 W/m2
04:49 67.3 °F /  19.6 °C 37.2 °F /  2.9 °C 29.77in /  1008hPa ENE 2.9mph /  4.7km/h 3.0mph /  4.8km/h 33% 0.00in /  0mm 0.00 W/m2
04:54 66.9 °F /  19.4 °C 36.9 °F /  2.7 °C 29.77in /  1008hPa Calm   2.0mph /  3.2km/h 33% 0.00in /  0mm 0.00 W/m2
04:58 66.9 °F /  19.4 °C 36.9 °F /  2.7 °C 29.77in /  1008hPa East 2.9mph /  4.7km/h 3.0mph /  4.8km/h 33% 0.00in /  0mm 0.00 W/m2
05:03 66.7 °F /  19.3 °C 36.7 °F /  2.6 °C 29.77in /  1008hPa Calm   3.0mph /  4.8km/h 33% 0.00in /  0mm 0.00 W/m2
05:09 66.7 °F /  19.3 °C 36.7 °F /  2.6 °C 29.77in /  1008hPa Calm   3.0mph /  4.8km/h 33% 0.00in /  0mm 0.00 W/m2
05:14 66.7 °F /  19.3 °C 36.7 °F /  2.6 °C 29.77in /  1008hPa Calm   2.0mph /  3.2km/h 33% 0.00in /  0mm 0.00 W/m2
05:19 66.7 °F /  19.3 °C 36.7 °F /  2.6 °C 29.77in /  1008hPa Calm   1.0mph /  1.6km/h 33% 0.00in /  0mm 0.00 W/m2
05:24 66.7 °F /  19.3 °C 36.7 °F /  2.6 °C 29.78in /  1008.4hPa East 0.9mph /  1.4km/h 1.0mph /  1.6km/h 33% 0.00in /  0mm 0.00 W/m2
05:29 66.7 °F /  19.3 °C 36.7 °F /  2.6 °C 29.78in /  1008.4hPa Calm   2.0mph /  3.2km/h 33% 0.00in /  0mm 0.00 W/m2
05:33 66.7 °F /  19.3 °C 36.7 °F /  2.6 °C 29.78in /  1008.4hPa Calm   1.0mph /  1.6km/h 33% 0.00in /  0mm 0.00 W/m2
05:39 66.7 °F /  19.3 °C 36.7 °F /  2.6 °C 29.78in /  1008.4hPa East 2.0mph /  3.2km/h 2.0mph /  3.2km/h 33% 0.00in /  0mm 0.00 W/m2
05:44 66.7 °F /  19.3 °C 36.0 °F /  2.2 °C 29.78in /  1008.4hPa Calm     32% 0.00in /  0mm 0.00 W/m2
05:48 66.9 °F /  19.4 °C 36.1 °F /  2.3 °C 29.78in /  1008.4hPa Calm   1.0mph /  1.6km/h 32% 0.00in /  0mm 0.00 W/m2
05:54 66.7 °F /  19.3 °C 36.0 °F /  2.2 °C 29.78in /  1008.4hPa Calm     32% 0.00in /  0mm 0.00 W/m2
05:59 66.7 °F /  19.3 °C 36.0 °F /  2.2 °C 29.78in /  1008.4hPa Calm     32% 0.00in /  0mm 0.00 W/m2
06:04 66.6 °F /  19.2 °C 35.8 °F /  2.1 °C 29.79in /  1008.7hPa Calm   2.0mph /  3.2km/h 32% 0.00in /  0mm 5.00 W/m2
06:09 66.7 °F /  19.3 °C 35.1 °F /  1.7 °C 29.79in /  1008.7hPa Calm   1.0mph /  1.6km/h 31% 0.00in /  0mm 7.00 W/m2
06:14 66.7 °F /  19.3 °C 35.1 °F /  1.7 °C 29.79in /  1008.7hPa ESE 2.0mph /  3.2km/h 5.0mph /  8km/h 31% 0.00in /  0mm 11.00 W/m2
06:19 66.9 °F /  19.4 °C 35.2 °F /  1.8 °C 29.79in /  1008.7hPa ESE 2.0mph /  3.2km/h 3.0mph /  4.8km/h 31% 0.00in /  0mm 12.00 W/m2
06:24 67.1 °F /  19.5 °C 35.4 °F /  1.9 °C 29.79in /  1008.7hPa Calm   2.0mph /  3.2km/h 31% 0.00in /  0mm 16.00 W/m2
06:29 67.1 °F /  19.5 °C 35.4 °F /  1.9 °C 29.80in /  1009hPa Calm   3.0mph /  4.8km/h 31% 0.00in /  0mm 19.00 W/m2
06:34 67.1 °F /  19.5 °C 35.4 °F /  1.9 °C 29.80in /  1009hPa East 0.9mph /  1.4km/h 1.0mph /  1.6km/h 31% 0.00in /  0mm 23.00 W/m2
06:39 66.9 °F /  19.4 °C 36.1 °F /  2.3 °C 29.80in /  1009hPa Calm   1.0mph /  1.6km/h 32% 0.00in /  0mm 26.00 W/m2
06:43 66.9 °F /  19.4 °C 36.1 °F /  2.3 °C 29.80in /  1009hPa Calm     32% 0.00in /  0mm 28.00 W/m2
06:49 66.9 °F /  19.4 °C 36.1 °F /  2.3 °C 29.80in /  1009hPa Calm   1.0mph /  1.6km/h 32% 0.00in /  0mm 32.00 W/m2
06:54 66.9 °F /  19.4 °C 36.1 °F /  2.3 °C 29.80in /  1009hPa Calm   1.0mph /  1.6km/h 32% 0.00in /  0mm 33.00 W/m2
06:59 67.3 °F /  19.6 °C 36.5 °F /  2.5 °C 29.80in /  1009hPa East 0.9mph /  1.4km/h 2.0mph /  3.2km/h 32% 0.00in /  0mm 37.00 W/m2
07:04 67.5 °F /  19.7 °C 36.5 °F /  2.5 °C 29.80in /  1009hPa East 0.9mph /  1.4km/h 1.0mph /  1.6km/h 32% 0.00in /  0mm 40.00 W/m2
07:09 67.6 °F /  19.8 °C 36.7 °F /  2.6 °C 29.80in /  1009hPa East 2.0mph /  3.2km/h 4.0mph /  6.4km/h 32% 0.00in /  0mm 42.00 W/m2
07:13 68.0 °F /  20 °C 36.3 °F /  2.4 °C 29.81in /  1009.4hPa East 0.9mph /  1.4km/h 2.0mph /  3.2km/h 31% 0.00in /  0mm 44.00 W/m2
07:19 68.4 °F /  20.2 °C 36.5 °F /  2.5 °C 29.81in /  1009.4hPa Calm   1.0mph /  1.6km/h 31% 0.00in /  0mm 51.00 W/m2
07:23 68.7 °F /  20.4 °C 37.6 °F /  3.1 °C 29.81in /  1009.4hPa Calm   2.0mph /  3.2km/h 32% 0.00in /  0mm 207.00 W/m2
07:29 69.3 °F /  20.7 °C 36.5 °F /  2.5 °C 29.81in /  1009.4hPa Calm   1.0mph /  1.6km/h 30% 0.00in /  0mm 223.00 W/m2
07:34 69.8 °F /  21 °C 37.8 °F /  3.2 °C 29.81in /  1009.4hPa Calm   1.0mph /  1.6km/h 31% 0.00in /  0mm 269.00 W/m2
07:39 70.5 °F /  21.4 °C 38.5 °F /  3.6 °C 29.80in /  1009hPa Calm   1.0mph /  1.6km/h 31% 0.00in /  0mm 302.00 W/m2
07:44 71.2 °F /  21.8 °C 36.5 °F /  2.5 °C 29.80in /  1009hPa Calm   2.0mph /  3.2km/h 28% 0.00in /  0mm 322.00 W/m2
07:49 72.3 °F /  22.4 °C 37.4 °F /  3 °C 29.81in /  1009.4hPa Calm   4.0mph /  6.4km/h 28% 0.00in /  0mm 345.00 W/m2
07:54 73.9 °F /  23.3 °C 36.9 °F /  2.7 °C 29.81in /  1009.4hPa NE 0.9mph /  1.4km/h 4.0mph /  6.4km/h 26% 0.00in /  0mm 362.00 W/m2
07:59 75.9 °F /  24.4 °C 37.6 °F /  3.1 °C 29.81in /  1009.4hPa ENE 0.9mph /  1.4km/h 5.0mph /  8km/h 25% 0.00in /  0mm 383.00 W/m2
08:04 77.7 °F /  25.4 °C 37.0 °F /  2.8 °C 29.81in /  1009.4hPa ESE 2.0mph /  3.2km/h 5.0mph /  8km/h 23% 0.00in /  0mm 403.00 W/m2
08:09 79.0 °F /  26.1 °C 36.9 °F /  2.7 °C 29.81in /  1009.4hPa SE 4.9mph /  7.9km/h 7.0mph /  11.3km/h 22% 0.00in /  0mm 415.00 W/m2
08:14 80.1 °F /  26.7 °C 37.8 °F /  3.2 °C 29.80in /  1009hPa SE 2.0mph /  3.2km/h 4.0mph /  6.4km/h 22% 0.00in /  0mm 434.00 W/m2
08:19 81.0 °F /  27.2 °C 37.4 °F /  3 °C 29.80in /  1009hPa Calm   3.0mph /  4.8km/h 21% 0.00in /  0mm 454.00 W/m2
08:24 81.9 °F /  27.7 °C 36.9 °F /  2.7 °C 29.80in /  1009hPa ESE 0.9mph /  1.4km/h 3.0mph /  4.8km/h 20% 0.00in /  0mm 473.00 W/m2
08:29 82.8 °F /  28.2 °C 37.6 °F /  3.1 °C 29.80in /  1009hPa NNE 0.9mph /  1.4km/h 5.0mph /  8km/h 20% 0.00in /  0mm 496.00 W/m2
08:34 83.5 °F /  28.6 °C 36.9 °F /  2.7 °C 29.80in /  1009hPa SE 6.0mph /  9.7km/h 7.0mph /  11.3km/h 19% 0.00in /  0mm 515.00 W/m2
08:39 83.7 °F /  28.7 °C 35.6 °F /  2 °C 29.80in /  1009hPa SSE 8.1mph /  13km/h 11.0mph /  17.7km/h 18% 0.00in /  0mm 531.00 W/m2
08:44 83.5 °F /  28.6 °C 35.6 °F /  2 °C 29.80in /  1009hPa SSE 6.0mph /  9.7km/h 11.0mph /  17.7km/h 18% 0.00in /  0mm 550.00 W/m2
08:49 83.5 °F /  28.6 °C 35.6 °F /  2 °C 29.80in /  1009hPa ESE 2.9mph /  4.7km/h 7.0mph /  11.3km/h 18% 0.00in /  0mm 570.00 W/m2
08:54 83.7 °F /  28.7 °C 35.6 °F /  2 °C 29.80in /  1009hPa SE 6.0mph /  9.7km/h 9.0mph /  14.5km/h 18% 0.00in /  0mm 587.00 W/m2
08:59 83.8 °F /  28.8 °C 35.8 °F /  2.1 °C 29.80in /  1009hPa SE 6.0mph /  9.7km/h 7.0mph /  11.3km/h 18% 0.00in /  0mm 605.00 W/m2
09:04 84.4 °F /  29.1 °C 36.3 °F /  2.4 °C 29.80in /  1009hPa SSE 2.0mph /  3.2km/h 10.0mph /  16.1km/h 18% 0.00in /  0mm 624.00 W/m2
09:09 84.4 °F /  29.1 °C 36.3 °F /  2.4 °C 29.80in /  1009hPa SSW 0.9mph /  1.4km/h 5.0mph /  8km/h 18% 0.00in /  0mm 636.00 W/m2
09:14 84.7 °F /  29.3 °C 36.5 °F /  2.5 °C 29.80in /  1009hPa ENE 2.0mph /  3.2km/h 7.0mph /  11.3km/h 18% 0.00in /  0mm 657.00 W/m2
Olympia, Windhoek, Namibia
Compliments of Weather Underground - 2.25 mb